sensor_id;sensor_type;location;lat;lon;timestamp;pressure;altitude;pressure_sealevel;temperature;humidity
24422;BME280;12600;53.326;-6.298;2024-03-02T00:01:30;98850.47;;;5.20;100.00
24422;BME280;12600;53.326;-6.298;2024-03-02T00:04:19;98843.63;;;5.23;100.00
24422;BME280;12600;53.326;-6.298;2024-03-02T00:07:09;98852.69;;;5.27;100.00
24422;BME280;12600;53.326;-6.298;2024-03-02T00:09:58;98855.25;;;5.23;100.00
24422;BME280;12600;53.326;-6.298;2024-03-02T00:12:48;98859.22;;;5.26;100.00
24422;BME280;12600;53.326;-6.298;2024-03-02T00:15:46;98860.69;;;5.23;100.00
24422;BME280;12600;53.326;-6.298;2024-03-02T00:18:38;98858.09;;;5.10;100.00
24422;BME280;12600;53.326;-6.298;2024-03-02T00:21:28;98859.88;;;5.14;100.00
24422;BME280;12600;53.326;-6.298;2024-03-02T00:24:21;98850.63;;;5.07;100.00
24422;BME280;12600;53.326;-6.298;2024-03-02T00:27:21;98862.88;;;5.04;100.00
24422;BME280;12600;53.326;-6.298;2024-03-02T00:30:54;98863.97;;;5.03;100.00
24422;BME280;12600;53.326;-6.298;2024-03-02T00:33:46;98854.91;;;4.90;100.00
24422;BME280;12600;53.326;-6.298;2024-03-02T00:36:35;98862.38;;;4.93;100.00
24422;BME280;12600;53.326;-6.298;2024-03-02T00:39:24;98865.41;;;4.92;100.00
24422;BME280;12600;53.326;-6.298;2024-03-02T00:42:14;98867.63;;;4.90;100.00
24422;BME280;12600;53.326;-6.298;2024-03-02T00:45:07;98856.28;;;4.79;100.00
24422;BME280;12600;53.326;-6.298;2024-03-02T00:47:58;98860.13;;;4.87;100.00
24422;BME280;12600;53.326;-6.298;2024-03-02T00:50:51;98868.69;;;4.80;100.00
24422;BME280;12600;53.326;-6.298;2024-03-02T00:53:41;98866.63;;;4.68;100.00
24422;BME280;12600;53.326;-6.298;2024-03-02T00:56:31;98868.38;;;4.73;100.00
24422;BME280;12600;53.326;-6.298;2024-03-02T00:59:22;98867.88;;;4.71;100.00
24422;BME280;12600;53.326;-6.298;2024-03-02T01:02:12;98862.81;;;4.78;100.00
24422;BME280;12600;53.326;-6.298;2024-03-02T01:05:03;98871.56;;;4.75;100.00
24422;BME280;12600;53.326;-6.298;2024-03-02T01:07:54;98872.81;;;4.69;100.00
24422;BME280;12600;53.326;-6.298;2024-03-02T01:10:43;98863.91;;;4.68;100.00
24422;BME280;12600;53.326;-6.298;2024-03-02T01:13:33;98869.19;;;4.73;100.00
24422;BME280;12600;53.326;-6.298;2024-03-02T01:16:22;98869.34;;;4.77;100.00
24422;BME280;12600;53.326;-6.298;2024-03-02T01:19:12;98866.16;;;4.75;100.00
24422;BME280;12600;53.326;-6.298;2024-03-02T01:22:05;98866.44;;;4.65;100.00
24422;BME280;12600;53.326;-6.298;2024-03-02T01:24:54;98876.31;;;4.69;100.00
24422;BME280;12600;53.326;-6.298;2024-03-02T01:27:44;98877.47;;;4.77;100.00
24422;BME280;12600;53.326;-6.298;2024-03-02T01:30:37;98877.91;;;4.70;100.00
24422;BME280;12600;53.326;-6.298;2024-03-02T01:33:26;98874.59;;;4.73;100.00
24422;BME280;12600;53.326;-6.298;2024-03-02T01:36:16;98884.47;;;4.78;100.00
24422;BME280;12600;53.326;-6.298;2024-03-02T01:39:07;98887.03;;;4.83;100.00
24422;BME280;12600;53.326;-6.298;2024-03-02T01:41:57;98877.31;;;4.82;100.00
24422;BME280;12600;53.326;-6.298;2024-03-02T01:44:47;98880.16;;;4.77;100.00
24422;BME280;12600;53.326;-6.298;2024-03-02T01:47:36;98877.13;;;4.70;100.00
24422;BME280;12600;53.326;-6.298;2024-03-02T01:50:28;98881.41;;;4.71;100.00
24422;BME280;12600;53.326;-6.298;2024-03-02T01:53:17;98885.41;;;4.73;100.00
24422;BME280;12600;53.326;-6.298;2024-03-02T01:56:08;98877.44;;;4.68;100.00
24422;BME280;12600;53.326;-6.298;2024-03-02T01:58:59;98870.25;;;4.64;100.00
24422;BME280;12600;53.326;-6.298;2024-03-02T02:01:49;98878.38;;;4.64;100.00
24422;BME280;12600;53.326;-6.298;2024-03-02T02:04:38;98870.44;;;4.67;100.00
24422;BME280;12600;53.326;-6.298;2024-03-02T02:07:28;98876.78;;;4.63;100.00
24422;BME280;12600;53.326;-6.298;2024-03-02T02:10:18;98875.19;;;4.62;100.00
24422;BME280;12600;53.326;-6.298;2024-03-02T02:13:08;98884.88;;;4.63;100.00
24422;BME280;12600;53.326;-6.298;2024-03-02T02:16:05;98889.34;;;4.59;100.00
24422;BME280;12600;53.326;-6.298;2024-03-02T02:18:56;98881.84;;;4.56;100.00
24422;BME280;12600;53.326;-6.298;2024-03-02T02:21:46;98885.53;;;4.60;100.00
24422;BME280;12600;53.326;-6.298;2024-03-02T02:24:37;98874.34;;;4.53;100.00
24422;BME280;12600;53.326;-6.298;2024-03-02T02:27:28;98886.88;;;4.48;100.00
24422;BME280;12600;53.326;-6.298;2024-03-02T02:30:20;98892.16;;;4.54;100.00
24422;BME280;12600;53.326;-6.298;2024-03-02T02:33:11;98896.13;;;4.47;100.00
24422;BME280;12600;53.326;-6.298;2024-03-02T02:36:02;98888.91;;;4.34;100.00
24422;BME280;12600;53.326;-6.298;2024-03-02T02:38:53;98888.28;;;4.37;100.00
24422;BME280;12600;53.326;-6.298;2024-03-02T02:41:42;98897.50;;;4.36;100.00
24422;BME280;12600;53.326;-6.298;2024-03-02T02:44:33;98887.34;;;4.33;100.00
24422;BME280;12600;53.326;-6.298;2024-03-02T02:47:22;98885.41;;;4.34;100.00
24422;BME280;12600;53.326;-6.298;2024-03-02T02:50:12;98896.66;;;4.27;100.00
24422;BME280;12600;53.326;-6.298;2024-03-02T02:53:02;98890.78;;;4.25;100.00
24422;BME280;12600;53.326;-6.298;2024-03-02T02:55:53;98890.94;;;4.29;100.00
24422;BME280;12600;53.326;-6.298;2024-03-02T02:58:42;98896.03;;;4.30;100.00
24422;BME280;12600;53.326;-6.298;2024-03-02T03:01:31;98894.44;;;4.29;100.00
24422;BME280;12600;53.326;-6.298;2024-03-02T03:04:21;98899.38;;;4.27;100.00
24422;BME280;12600;53.326;-6.298;2024-03-02T03:07:10;98896.66;;;4.27;100.00
24422;BME280;12600;53.326;-6.298;2024-03-02T03:10:00;98894.22;;;4.17;100.00
24422;BME280;12600;53.326;-6.298;2024-03-02T03:12:51;98886.63;;;4.19;100.00
24422;BME280;12600;53.326;-6.298;2024-03-02T03:15:40;98882.03;;;4.28;100.00
24422;BME280;12600;53.326;-6.298;2024-03-02T03:18:30;98887.72;;;4.18;100.00
24422;BME280;12600;53.326;-6.298;2024-03-02T03:21:20;98881.06;;;4.24;100.00
24422;BME280;12600;53.326;-6.298;2024-03-02T03:24:09;98887.78;;;4.27;100.00
24422;BME280;12600;53.326;-6.298;2024-03-02T03:26:58;98885.38;;;4.25;100.00
24422;BME280;12600;53.326;-6.298;2024-03-02T03:29:49;98892.38;;;4.26;100.00
24422;BME280;12600;53.326;-6.298;2024-03-02T03:32:38;98890.78;;;4.25;100.00
24422;BME280;12600;53.326;-6.298;2024-03-02T03:35:28;98894.44;;;4.29;100.00
24422;BME280;12600;53.326;-6.298;2024-03-02T03:38:17;98893.63;;;4.20;100.00
24422;BME280;12600;53.326;-6.298;2024-03-02T03:41:07;98893.19;;;4.27;100.00
24422;BME280;12600;53.326;-6.298;2024-03-02T03:43:56;98890.44;;;4.18;100.00
24422;BME280;12600;53.326;-6.298;2024-03-02T03:46:47;98889.47;;;4.22;100.00
24422;BME280;12600;53.326;-6.298;2024-03-02T03:49:36;98896.63;;;4.18;100.00
24422;BME280;12600;53.326;-6.298;2024-03-02T03:52:26;98896.78;;;4.22;100.00
24422;BME280;12600;53.326;-6.298;2024-03-02T03:55:15;98900.13;;;4.19;100.00
24422;BME280;12600;53.326;-6.298;2024-03-02T03:58:05;98898.22;;;4.19;100.00
24422;BME280;12600;53.326;-6.298;2024-03-02T04:00:54;98894.22;;;4.17;100.00
24422;BME280;12600;53.326;-6.298;2024-03-02T04:03:46;98897.38;;;4.10;100.00
24422;BME280;12600;53.326;-6.298;2024-03-02T04:06:35;98907.38;;;4.10;100.00
24422;BME280;12600;53.326;-6.298;2024-03-02T04:09:26;98908.66;;;4.12;100.00
24422;BME280;12600;53.326;-6.298;2024-03-02T04:12:15;98905.91;;;4.04;100.00
24422;BME280;12600;53.326;-6.298;2024-03-02T04:15:06;98896.16;;;3.94;100.00
24422;BME280;12600;53.326;-6.298;2024-03-02T04:17:55;98905.72;;;4.00;100.00
24422;BME280;12600;53.326;-6.298;2024-03-02T04:20:46;98905.56;;;3.97;100.00
24422;BME280;12600;53.326;-6.298;2024-03-02T04:23:39;98892.94;;;3.92;100.00
24422;BME280;12600;53.326;-6.298;2024-03-02T04:26:28;98896.81;;;4.00;100.00
24422;BME280;12600;53.326;-6.298;2024-03-02T04:29:18;98900.09;;;3.88;100.00
24422;BME280;12600;53.326;-6.298;2024-03-02T04:32:07;98898.19;;;3.88;100.00
24422;BME280;12600;53.326;-6.298;2024-03-02T04:34:57;98899.53;;;4.00;100.00
24422;BME280;12600;53.326;-6.298;2024-03-02T04:37:48;98904.13;;;3.99;100.00
24422;BME280;12600;53.326;-6.298;2024-03-02T04:40:37;98899.53;;;4.00;100.00
24422;BME280;12600;53.326;-6.298;2024-03-02T04:43:27;98890.94;;;3.98;100.00
24422;BME280;12600;53.326;-6.298;2024-03-02T04:46:16;98891.56;;;3.95;100.00
24422;BME280;12600;53.326;-6.298;2024-03-02T04:49:05;98896.66;;;3.96;100.00
24422;BME280;12600;53.326;-6.298;2024-03-02T04:51:55;98904.94;;;4.00;100.00
24422;BME280;12600;53.326;-6.298;2024-03-02T04:54:46;98904.44;;;3.98;100.00
24422;BME280;12600;53.326;-6.298;2024-03-02T04:57:53;98914.13;;;3.99;100.00
24422;BME280;12600;53.326;-6.298;2024-03-02T05:00:44;98915.38;;;3.92;100.00
24422;BME280;12600;53.326;-6.298;2024-03-02T05:03:34;98910.59;;;3.89;100.00
24422;BME280;12600;53.326;-6.298;2024-03-02T05:06:24;98914.09;;;3.90;100.00
24422;BME280;12600;53.326;-6.298;2024-03-02T05:09:13;98916.91;;;3.85;100.00
24422;BME280;12600;53.326;-6.298;2024-03-02T05:12:05;98912.81;;;3.87;100.00
24422;BME280;12600;53.326;-6.298;2024-03-02T05:15:28;98924.28;;;3.93;100.00
24422;BME280;12600;53.326;-6.298;2024-03-02T05:18:18;98921.50;;;3.84;100.00
24422;BME280;12600;53.326;-6.298;2024-03-02T05:21:08;98925.38;;;3.92;100.00
24422;BME280;12600;53.326;-6.298;2024-03-02T05:23:57;98912.38;;;3.94;100.00
24422;BME280;12600;53.326;-6.298;2024-03-02T05:26:47;98908.72;;;3.76;100.00
24422;BME280;12600;53.326;-6.298;2024-03-02T05:29:38;98911.81;;;3.83;100.00
24422;BME280;12600;53.326;-6.298;2024-03-02T05:32:28;98907.81;;;3.81;100.00
24422;BME280;12600;53.326;-6.298;2024-03-02T05:35:17;98903.63;;;3.75;100.00
24422;BME280;12600;53.326;-6.298;2024-03-02T05:38:06;98924.66;;;3.78;100.00
24422;BME280;12600;53.326;-6.298;2024-03-02T05:40:57;98925.72;;;3.77;100.00
24422;BME280;12600;53.326;-6.298;2024-03-02T05:43:46;98919.91;;;3.61;100.00
24422;BME280;12600;53.326;-6.298;2024-03-02T05:46:37;98917.47;;;3.73;100.00
24422;BME280;12600;53.326;-6.298;2024-03-02T05:49:28;98922.59;;;3.83;100.00
24422;BME280;12600;53.326;-6.298;2024-03-02T05:52:18;98917.63;;;3.77;100.00
24422;BME280;12600;53.326;-6.298;2024-03-02T05:55:08;98930.06;;;3.78;100.00
24422;BME280;12600;53.326;-6.298;2024-03-02T05:57:58;98926.41;;;3.82;100.00
24422;BME280;12600;53.326;-6.298;2024-03-02T06:01:03;98929.44;;;3.81;100.00
24422;BME280;12600;53.326;-6.298;2024-03-02T06:03:55;98925.06;;;3.71;100.00
24422;BME280;12600;53.326;-6.298;2024-03-02T06:06:45;98927.47;;;3.73;100.00
24422;BME280;12600;53.326;-6.298;2024-03-02T06:09:34;98923.97;;;3.72;100.00
24422;BME280;12600;53.326;-6.298;2024-03-02T06:12:24;98933.41;;;3.83;100.00
24422;BME280;12600;53.326;-6.298;2024-03-02T06:15:13;98938.09;;;3.69;100.00
24422;BME280;12600;53.326;-6.298;2024-03-02T06:18:04;98947.66;;;3.75;100.00
24422;BME280;12600;53.326;-6.298;2024-03-02T06:20:56;98950.50;;;3.70;100.00
24422;BME280;12600;53.326;-6.298;2024-03-02T06:23:45;98936.84;;;3.75;100.00
24422;BME280;12600;53.326;-6.298;2024-03-02T06:26:35;98951.88;;;3.68;100.00
24422;BME280;12600;53.326;-6.298;2024-03-02T06:29:24;98954.06;;;3.79;100.00
24422;BME280;12600;53.326;-6.298;2024-03-02T06:32:14;98954.78;;;3.71;100.00
24422;BME280;12600;53.326;-6.298;2024-03-02T06:35:04;98957.66;;;3.75;100.00
24422;BME280;12600;53.326;-6.298;2024-03-02T06:37:56;98959.69;;;3.69;100.00
24422;BME280;12600;53.326;-6.298;2024-03-02T06:40:46;98958.47;;;3.75;100.00
24422;BME280;12600;53.326;-6.298;2024-03-02T06:43:35;98950.28;;;3.67;100.00
24422;BME280;12600;53.326;-6.298;2024-03-02T06:46:26;98954.63;;;3.54;100.00
24422;BME280;12600;53.326;-6.298;2024-03-02T06:49:15;98961.22;;;3.61;100.00
24422;BME280;12600;53.326;-6.298;2024-03-02T06:52:06;98953.00;;;3.53;100.00
24422;BME280;12600;53.326;-6.298;2024-03-02T06:54:57;98959.59;;;3.60;100.00
24422;BME280;12600;53.326;-6.298;2024-03-02T06:57:46;98963.63;;;3.63;100.00
24422;BME280;12600;53.326;-6.298;2024-03-02T07:00:35;98962.22;;;3.52;100.00
24422;BME280;12600;53.326;-6.298;2024-03-02T07:03:25;98966.34;;;3.49;100.00
24422;BME280;12600;53.326;-6.298;2024-03-02T07:06:14;98962.22;;;3.52;100.00
24422;BME280;12600;53.326;-6.298;2024-03-02T07:09:04;98971.81;;;3.58;100.00
24422;BME280;12600;53.326;-6.298;2024-03-02T07:11:56;98971.97;;;3.39;100.00
24422;BME280;12600;53.326;-6.298;2024-03-02T07:14:45;98960.22;;;3.57;100.00
24422;BME280;12600;53.326;-6.298;2024-03-02T07:18:07;98966.91;;;3.60;100.00
24422;BME280;12600;53.326;-6.298;2024-03-02T07:20:57;98970.16;;;3.48;100.00
24422;BME280;12600;53.326;-6.298;2024-03-02T07:23:49;98964.34;;;3.55;100.00
24422;BME280;12600;53.326;-6.298;2024-03-02T07:26:39;98947.53;;;3.44;100.00
24422;BME280;12600;53.326;-6.298;2024-03-02T07:29:33;98971.13;;;3.52;100.00
24422;BME280;12600;53.326;-6.298;2024-03-02T07:32:22;98969.03;;;3.49;100.00
24422;BME280;12600;53.326;-6.298;2024-03-02T07:35:12;98955.72;;;3.53;100.00
24422;BME280;12600;53.326;-6.298;2024-03-02T07:38:02;98979.13;;;3.57;100.00
24422;BME280;12600;53.326;-6.298;2024-03-02T07:40:52;98971.50;;;3.59;100.00
24422;BME280;12600;53.326;-6.298;2024-03-02T07:43:42;98973.63;;;3.62;100.00
24422;BME280;12600;53.326;-6.298;2024-03-02T07:46:33;98975.28;;;3.72;100.00
24422;BME280;12600;53.326;-6.298;2024-03-02T07:49:22;98977.28;;;3.67;100.00
24422;BME280;12600;53.326;-6.298;2024-03-02T07:52:12;98985.25;;;3.85;100.00
24422;BME280;12600;53.326;-6.298;2024-03-02T07:55:01;98983.84;;;3.88;100.00
24422;BME280;12600;53.326;-6.298;2024-03-02T07:57:51;98988.44;;;3.87;100.00
24422;BME280;12600;53.326;-6.298;2024-03-02T08:00:40;98988.81;;;3.95;100.00
24422;BME280;12600;53.326;-6.298;2024-03-02T08:03:31;98986.53;;;3.88;100.00
24422;BME280;12600;53.326;-6.298;2024-03-02T08:06:22;98999.22;;;4.01;100.00
24422;BME280;12600;53.326;-6.298;2024-03-02T08:09:14;99002.56;;;4.07;100.00
24422;BME280;12600;53.326;-6.298;2024-03-02T08:12:04;98994.22;;;4.17;100.00
24422;BME280;12600;53.326;-6.298;2024-03-02T08:14:54;99003.94;;;4.18;100.00
24422;BME280;12600;53.326;-6.298;2024-03-02T08:17:44;98998.78;;;4.30;100.00
24422;BME280;12600;53.326;-6.298;2024-03-02T08:20:39;98999.09;;;4.29;100.00
24422;BME280;12600;53.326;-6.298;2024-03-02T08:23:29;98994.59;;;4.24;100.00
24422;BME280;12600;53.326;-6.298;2024-03-02T08:26:20;98999.88;;;4.29;100.00
24422;BME280;12600;53.326;-6.298;2024-03-02T08:29:09;98993.06;;;4.32;100.00
24422;BME280;12600;53.326;-6.298;2024-03-02T08:32:00;98997.34;;;4.33;100.00
24422;BME280;12600;53.326;-6.298;2024-03-02T08:34:49;98996.44;;;4.37;100.00
24422;BME280;12600;53.326;-6.298;2024-03-02T08:37:42;98997.16;;;4.52;100.00
24422;BME280;12600;53.326;-6.298;2024-03-02T08:40:31;99002.69;;;4.46;100.00
24422;BME280;12600;53.326;-6.298;2024-03-02T08:43:21;98996.16;;;4.70;100.00
24422;BME280;12600;53.326;-6.298;2024-03-02T08:46:11;99010.06;;;4.86;100.00
24422;BME280;12600;53.326;-6.298;2024-03-02T08:49:00;99007.75;;;5.01;100.00
24422;BME280;12600;53.326;-6.298;2024-03-02T08:51:50;99002.94;;;5.38;100.00
24422;BME280;12600;53.326;-6.298;2024-03-02T08:54:44;99007.16;;;5.87;100.00
24422;BME280;12600;53.326;-6.298;2024-03-02T08:57:34;99011.47;;;6.32;100.00
24422;BME280;12600;53.326;-6.298;2024-03-02T09:00:24;99018.44;;;6.67;100.00
24422;BME280;12600;53.326;-6.298;2024-03-02T09:03:13;99012.13;;;6.93;100.00
24422;BME280;12600;53.326;-6.298;2024-03-02T09:06:04;99011.28;;;7.10;97.90
24422;BME280;12600;53.326;-6.298;2024-03-02T09:08:53;99012.81;;;7.19;96.67
24422;BME280;12600;53.326;-6.298;2024-03-02T09:11:46;99016.41;;;7.03;95.84
24422;BME280;12600;53.326;-6.298;2024-03-02T09:14:36;99010.56;;;6.92;96.36
24422;BME280;12600;53.326;-6.298;2024-03-02T09:17:26;99001.94;;;6.90;96.71
24422;BME280;12600;53.326;-6.298;2024-03-02T09:20:15;99012.38;;;6.62;96.05
24422;BME280;12600;53.326;-6.298;2024-03-02T09:23:05;99021.69;;;6.35;96.05
24422;BME280;12600;53.326;-6.298;2024-03-02T09:25:54;99012.09;;;6.46;97.44
24422;BME280;12600;53.326;-6.298;2024-03-02T09:28:45;99021.00;;;6.55;97.35
24422;BME280;12600;53.326;-6.298;2024-03-02T09:31:39;99025.34;;;6.48;96.38
24422;BME280;12600;53.326;-6.298;2024-03-02T09:34:29;99026.63;;;6.50;95.77
24422;BME280;12600;53.326;-6.298;2024-03-02T09:37:18;99023.44;;;6.39;95.52
24422;BME280;12600;53.326;-6.298;2024-03-02T09:40:10;99017.47;;;6.63;96.74
24422;BME280;12600;53.326;-6.298;2024-03-02T09:43:00;99019.38;;;6.71;97.16
24422;BME280;12600;53.326;-6.298;2024-03-02T09:45:51;99029.78;;;6.61;95.65
24422;BME280;12600;53.326;-6.298;2024-03-02T09:48:41;99006.31;;;6.56;96.46
24422;BME280;12600;53.326;-6.298;2024-03-02T09:51:31;99028.03;;;6.48;95.95
24422;BME280;12600;53.326;-6.298;2024-03-02T09:54:21;99016.59;;;6.42;96.36
24422;BME280;12600;53.326;-6.298;2024-03-02T09:57:11;99022.28;;;6.49;96.84
24422;BME280;12600;53.326;-6.298;2024-03-02T10:00:01;99010.66;;;6.31;96.33
24422;BME280;12600;53.326;-6.298;2024-03-02T10:02:53;99018.66;;;6.36;96.65
24422;BME280;12600;53.326;-6.298;2024-03-02T10:05:42;99014.81;;;6.46;96.96
24422;BME280;12600;53.326;-6.298;2024-03-02T10:08:43;99015.13;;;6.53;96.75
24422;BME280;12600;53.326;-6.298;2024-03-02T10:11:35;99013.34;;;6.57;96.53
24422;BME280;12600;53.326;-6.298;2024-03-02T10:14:25;99015.25;;;6.57;95.83
24422;BME280;12600;53.326;-6.298;2024-03-02T10:17:17;99012.72;;;6.60;96.08
24422;BME280;12600;53.326;-6.298;2024-03-02T10:20:24;99003.56;;;6.73;96.17
24422;BME280;12600;53.326;-6.298;2024-03-02T10:23:17;99014.22;;;6.87;96.17
24422;BME280;12600;53.326;-6.298;2024-03-02T10:26:17;99004.16;;;6.88;96.15
24422;BME280;12600;53.326;-6.298;2024-03-02T10:29:09;99018.56;;;6.80;95.61
24422;BME280;12600;53.326;-6.298;2024-03-02T10:32:02;99012.69;;;6.69;95.61
24422;BME280;12600;53.326;-6.298;2024-03-02T10:34:52;99013.78;;;6.77;95.70
24422;BME280;12600;53.326;-6.298;2024-03-02T10:37:43;99009.09;;;6.94;95.37
24422;BME280;12600;53.326;-6.298;2024-03-02T10:40:32;99009.09;;;6.94;95.33
24422;BME280;12600;53.326;-6.298;2024-03-02T10:43:22;99010.78;;;7.16;95.16
24422;BME280;12600;53.326;-6.298;2024-03-02T10:46:12;99004.09;;;7.05;93.63
24422;BME280;12600;53.326;-6.298;2024-03-02T10:49:04;99006.94;;;7.17;93.43
24422;BME280;12600;53.326;-6.298;2024-03-02T10:51:57;99008.81;;;7.25;93.25
24422;BME280;12600;53.326;-6.298;2024-03-02T10:54:48;99005.66;;;7.15;91.79
24422;BME280;12600;53.326;-6.298;2024-03-02T10:57:42;98999.88;;;7.25;91.92
24422;BME280;12600;53.326;-6.298;2024-03-02T11:00:37;99003.50;;;7.29;91.53
24422;BME280;12600;53.326;-6.298;2024-03-02T11:03:27;98999.47;;;7.35;91.18
24422;BME280;12600;53.326;-6.298;2024-03-02T11:06:18;98998.53;;;7.61;89.62
24422;BME280;12600;53.326;-6.298;2024-03-02T11:09:10;99016.03;;;7.51;88.57
24422;BME280;12600;53.326;-6.298;2024-03-02T11:12:06;99001.09;;;7.87;87.29
24422;BME280;12600;53.326;-6.298;2024-03-02T11:14:59;99009.22;;;8.07;86.21
24422;BME280;12600;53.326;-6.298;2024-03-02T11:17:49;99010.28;;;8.15;85.26
24422;BME280;12600;53.326;-6.298;2024-03-02T11:20:40;99010.34;;;8.27;84.35
24422;BME280;12600;53.326;-6.298;2024-03-02T11:23:34;99012.38;;;8.96;85.12
24422;BME280;12600;53.326;-6.298;2024-03-02T11:26:24;99014.44;;;9.12;84.13
24422;BME280;12600;53.326;-6.298;2024-03-02T11:29:43;99009.00;;;9.36;81.11
24422;BME280;12600;53.326;-6.298;2024-03-02T11:32:33;99012.41;;;9.09;78.59
24422;BME280;12600;53.326;-6.298;2024-03-02T11:35:24;99010.69;;;9.04;79.68
24422;BME280;12600;53.326;-6.298;2024-03-02T11:38:14;99007.28;;;8.83;79.42
24422;BME280;12600;53.326;-6.298;2024-03-02T11:41:07;99019.81;;;8.63;80.18
24422;BME280;12600;53.326;-6.298;2024-03-02T11:43:57;99017.56;;;8.77;80.70
24422;BME280;12600;53.326;-6.298;2024-03-02T11:46:59;99012.44;;;8.63;81.42
24422;BME280;12600;53.326;-6.298;2024-03-02T11:49:50;99003.75;;;8.49;82.69
24422;BME280;12600;53.326;-6.298;2024-03-02T11:52:42;98998.69;;;8.27;83.42
24422;BME280;12600;53.326;-6.298;2024-03-02T11:55:34;98997.50;;;8.36;83.46
24422;BME280;12600;53.326;-6.298;2024-03-02T11:58:24;98996.72;;;8.48;82.33
24422;BME280;12600;53.326;-6.298;2024-03-02T12:01:14;99000.72;;;8.51;79.94
24422;BME280;12600;53.326;-6.298;2024-03-02T12:04:06;99003.19;;;8.44;81.88
24422;BME280;12600;53.326;-6.298;2024-03-02T12:06:57;98997.75;;;8.44;81.23
24422;BME280;12600;53.326;-6.298;2024-03-02T12:09:49;98991.19;;;8.57;83.26
24422;BME280;12600;53.326;-6.298;2024-03-02T12:12:49;98989.66;;;8.68;82.62
24422;BME280;12600;53.326;-6.298;2024-03-02T12:15:44;98977.72;;;8.60;82.77
24422;BME280;12600;53.326;-6.298;2024-03-02T12:18:33;98975.44;;;8.62;82.71
24422;BME280;12600;53.326;-6.298;2024-03-02T12:21:25;98987.22;;;8.33;82.09
24422;BME280;12600;53.326;-6.298;2024-03-02T12:24:14;98986.97;;;8.47;83.56
24422;BME280;12600;53.326;-6.298;2024-03-02T12:27:05;98982.13;;;8.32;83.64
24422;BME280;12600;53.326;-6.298;2024-03-02T12:29:55;98971.25;;;8.32;83.66
24422;BME280;12600;53.326;-6.298;2024-03-02T12:32:45;98976.69;;;8.32;84.13
24422;BME280;12600;53.326;-6.298;2024-03-02T12:35:36;98978.16;;;8.29;83.69
24422;BME280;12600;53.326;-6.298;2024-03-02T12:38:27;98977.44;;;8.41;83.51
24422;BME280;12600;53.326;-6.298;2024-03-02T12:41:17;98965.09;;;8.44;83.64
24422;BME280;12600;53.326;-6.298;2024-03-02T12:44:07;98971.19;;;8.40;83.30
24422;BME280;12600;53.326;-6.298;2024-03-02T12:46:56;98966.78;;;8.48;83.41
24422;BME280;12600;53.326;-6.298;2024-03-02T12:49:49;98962.28;;;8.52;83.06
24422;BME280;12600;53.326;-6.298;2024-03-02T12:52:40;98966.50;;;8.62;82.87
24422;BME280;12600;53.326;-6.298;2024-03-02T12:55:31;98967.84;;;8.56;83.07
24422;BME280;12600;53.326;-6.298;2024-03-02T12:58:22;98953.88;;;8.45;81.58
24422;BME280;12600;53.326;-6.298;2024-03-02T13:01:15;98950.94;;;8.62;81.26
24422;BME280;12600;53.326;-6.298;2024-03-02T13:04:07;98939.13;;;8.46;80.63
24422;BME280;12600;53.326;-6.298;2024-03-02T13:06:58;98946.41;;;8.54;80.96
24422;BME280;12600;53.326;-6.298;2024-03-02T13:09:48;98950.84;;;8.59;82.19
24422;BME280;12600;53.326;-6.298;2024-03-02T13:12:40;98955.34;;;8.55;82.03
24422;BME280;12600;53.326;-6.298;2024-03-02T13:15:29;98948.69;;;8.64;82.02
24422;BME280;12600;53.326;-6.298;2024-03-02T13:18:18;98945.50;;;8.62;81.95
24422;BME280;12600;53.326;-6.298;2024-03-02T13:21:09;98940.28;;;8.57;81.65
24422;BME280;12600;53.326;-6.298;2024-03-02T13:23:58;98954.75;;;8.82;81.87
24422;BME280;12600;53.326;-6.298;2024-03-02T13:26:48;98952.69;;;8.91;81.46
24422;BME280;12600;53.326;-6.298;2024-03-02T13:29:39;98948.59;;;8.85;80.60
24422;BME280;12600;53.326;-6.298;2024-03-02T13:32:28;98952.47;;;8.84;79.57
24422;BME280;12600;53.326;-6.298;2024-03-02T13:35:18;98934.28;;;8.88;79.23
24422;BME280;12600;53.326;-6.298;2024-03-02T13:38:07;98933.38;;;8.96;77.85
24422;BME280;12600;53.326;-6.298;2024-03-02T13:40:57;98941.81;;;9.16;76.54
24422;BME280;12600;53.326;-6.298;2024-03-02T13:43:48;98935.22;;;9.05;75.50
24422;BME280;12600;53.326;-6.298;2024-03-02T13:46:42;98931.47;;;8.85;75.22
24422;BME280;12600;53.326;-6.298;2024-03-02T13:49:33;98935.47;;;9.00;75.05
24422;BME280;12600;53.326;-6.298;2024-03-02T13:52:25;98928.88;;;9.01;76.21
24422;BME280;12600;53.326;-6.298;2024-03-02T13:55:15;98926.81;;;9.10;76.27
24422;BME280;12600;53.326;-6.298;2024-03-02T13:58:05;98921.25;;;9.18;76.95
24422;BME280;12600;53.326;-6.298;2024-03-02T14:00:54;98921.00;;;9.36;76.04
24422;BME280;12600;53.326;-6.298;2024-03-02T14:03:47;98911.72;;;9.24;75.38
24422;BME280;12600;53.326;-6.298;2024-03-02T14:06:37;98909.97;;;9.44;73.95
24422;BME280;12600;53.326;-6.298;2024-03-02T14:09:26;98912.94;;;9.39;74.39
24422;BME280;12600;53.326;-6.298;2024-03-02T14:12:16;98907.94;;;9.29;74.46
24422;BME280;12600;53.326;-6.298;2024-03-02T14:15:07;98926.78;;;9.46;73.37
24422;BME280;12600;53.326;-6.298;2024-03-02T14:17:57;98906.78;;;9.55;73.43
24422;BME280;12600;53.326;-6.298;2024-03-02T14:20:48;98886.28;;;9.61;73.12
24422;BME280;12600;53.326;-6.298;2024-03-02T14:23:40;98899.41;;;9.55;72.46
24422;BME280;12600;53.326;-6.298;2024-03-02T14:26:30;98902.44;;;9.53;74.86
24422;BME280;12600;53.326;-6.298;2024-03-02T14:29:20;98903.28;;;9.42;78.41
24422;BME280;12600;53.326;-6.298;2024-03-02T14:32:10;98909.22;;;9.19;79.61
24422;BME280;12600;53.326;-6.298;2024-03-02T14:34:59;98904.47;;;9.16;79.92
24422;BME280;12600;53.326;-6.298;2024-03-02T14:37:50;98896.97;;;9.01;79.68
24422;BME280;12600;53.326;-6.298;2024-03-02T14:40:40;98898.47;;;8.99;79.79
24422;BME280;12600;53.326;-6.298;2024-03-02T14:43:30;98901.50;;;8.97;80.46
24422;BME280;12600;53.326;-6.298;2024-03-02T14:46:20;98891.84;;;8.63;82.50
24422;BME280;12600;53.326;-6.298;2024-03-02T14:49:11;98874.94;;;8.45;84.94
24422;BME280;12600;53.326;-6.298;2024-03-02T14:52:00;98909.22;;;8.71;85.91
24422;BME280;12600;53.326;-6.298;2024-03-02T14:54:52;98896.28;;;8.80;86.29
24422;BME280;12600;53.326;-6.298;2024-03-02T14:57:42;98900.84;;;9.00;85.04
24422;BME280;12600;53.326;-6.298;2024-03-02T15:00:31;98887.88;;;9.09;84.34